sensor_id;sensor_type;location;lat;lon;timestamp;P1;durP1;ratioP1;P2;durP2;ratioP2
84264;SDS011;74412;45.626;5.108;2023-12-22T00:01:08;1.00;;;1.00;;
84264;SDS011;74412;45.626;5.108;2023-12-22T00:03:36;0.00;;;0.00;;
84264;SDS011;74412;45.626;5.108;2023-12-22T00:06:03;1.50;;;0.00;;
84264;SDS011;74412;45.626;5.108;2023-12-22T00:08:31;0.00;;;0.00;;
84264;SDS011;74412;45.626;5.108;2023-12-22T00:10:58;0.00;;;0.00;;
84264;SDS011;74412;45.626;5.108;2023-12-22T00:13:25;1.50;;;1.00;;
84264;SDS011;74412;45.626;5.108;2023-12-22T00:15:51;0.00;;;0.00;;
84264;SDS011;74412;45.626;5.108;2023-12-22T00:18:18;0.00;;;0.00;;
84264;SDS011;74412;45.626;5.108;2023-12-22T00:20:44;0.00;;;0.00;;
84264;SDS011;74412;45.626;5.108;2023-12-22T00:23:11;0.00;;;0.00;;
84264;SDS011;74412;45.626;5.108;2023-12-22T00:25:39;0.00;;;0.00;;
84264;SDS011;74412;45.626;5.108;2023-12-22T00:28:06;0.00;;;0.00;;
84264;SDS011;74412;45.626;5.108;2023-12-22T00:30:32;0.00;;;0.00;;
84264;SDS011;74412;45.626;5.108;2023-12-22T00:32:59;0.00;;;0.00;;
84264;SDS011;74412;45.626;5.108;2023-12-22T00:35:25;1.00;;;0.00;;
84264;SDS011;74412;45.626;5.108;2023-12-22T00:37:52;0.00;;;0.00;;
84264;SDS011;74412;45.626;5.108;2023-12-22T00:40:19;0.00;;;0.00;;
84264;SDS011;74412;45.626;5.108;2023-12-22T00:42:47;1.00;;;0.00;;
84264;SDS011;74412;45.626;5.108;2023-12-22T00:45:13;0.00;;;0.00;;
84264;SDS011;74412;45.626;5.108;2023-12-22T00:47:40;0.00;;;0.00;;
84264;SDS011;74412;45.626;5.108;2023-12-22T00:50:07;0.00;;;0.00;;
84264;SDS011;74412;45.626;5.108;2023-12-22T00:52:34;0.00;;;0.00;;
84264;SDS011;74412;45.626;5.108;2023-12-22T00:55:00;0.00;;;0.00;;
84264;SDS011;74412;45.626;5.108;2023-12-22T00:57:27;0.00;;;0.00;;
84264;SDS011;74412;45.626;5.108;2023-12-22T00:59:56;0.00;;;0.00;;
84264;SDS011;74412;45.626;5.108;2023-12-22T01:02:23;0.00;;;0.00;;
84264;SDS011;74412;45.626;5.108;2023-12-22T01:04:49;0.00;;;0.00;;
84264;SDS011;74412;45.626;5.108;2023-12-22T01:07:16;0.00;;;0.00;;
84264;SDS011;74412;45.626;5.108;2023-12-22T01:09:43;0.00;;;0.00;;
84264;SDS011;74412;45.626;5.108;2023-12-22T01:12:10;0.00;;;0.00;;
84264;SDS011;74412;45.626;5.108;2023-12-22T01:14:37;0.00;;;0.00;;
84264;SDS011;74412;45.626;5.108;2023-12-22T01:17:05;0.00;;;0.00;;
84264;SDS011;74412;45.626;5.108;2023-12-22T01:19:32;0.00;;;0.00;;
84264;SDS011;74412;45.626;5.108;2023-12-22T01:21:59;0.00;;;0.00;;
84264;SDS011;74412;45.626;5.108;2023-12-22T01:24:25;1.00;;;0.00;;
84264;SDS011;74412;45.626;5.108;2023-12-22T01:26:52;1.50;;;0.00;;
84264;SDS011;74412;45.626;5.108;2023-12-22T01:29:19;0.00;;;0.00;;
84264;SDS011;74412;45.626;5.108;2023-12-22T01:31:45;0.00;;;0.00;;
84264;SDS011;74412;45.626;5.108;2023-12-22T01:34:13;0.00;;;0.00;;
84264;SDS011;74412;45.626;5.108;2023-12-22T01:36:40;0.00;;;0.00;;
84264;SDS011;74412;45.626;5.108;2023-12-22T01:39:07;0.75;;;0.00;;
84264;SDS011;74412;45.626;5.108;2023-12-22T01:41:34;0.00;;;0.00;;
84264;SDS011;74412;45.626;5.108;2023-12-22T01:44:01;0.00;;;0.00;;
84264;SDS011;74412;45.626;5.108;2023-12-22T01:46:27;0.00;;;0.00;;
84264;SDS011;74412;45.626;5.108;2023-12-22T01:48:54;0.00;;;0.00;;
84264;SDS011;74412;45.626;5.108;2023-12-22T01:51:22;0.00;;;0.00;;
84264;SDS011;74412;45.626;5.108;2023-12-22T01:53:49;1.00;;;0.00;;
84264;SDS011;74412;45.626;5.108;2023-12-22T01:56:17;0.00;;;0.00;;
84264;SDS011;74412;45.626;5.108;2023-12-22T01:58:45;0.00;;;0.00;;
84264;SDS011;74412;45.626;5.108;2023-12-22T02:01:11;0.00;;;0.00;;
84264;SDS011;74412;45.626;5.108;2023-12-22T02:03:39;0.00;;;0.00;;
84264;SDS011;74412;45.626;5.108;2023-12-22T02:06:06;0.00;;;0.00;;
84264;SDS011;74412;45.626;5.108;2023-12-22T02:08:34;0.00;;;0.00;;
84264;SDS011;74412;45.626;5.108;2023-12-22T02:11:02;0.00;;;0.00;;
84264;SDS011;74412;45.626;5.108;2023-12-22T02:13:29;0.50;;;0.50;;
84264;SDS011;74412;45.626;5.108;2023-12-22T02:15:59;0.00;;;0.00;;
84264;SDS011;74412;45.626;5.108;2023-12-22T02:18:31;0.00;;;0.00;;
84264;SDS011;74412;45.626;5.108;2023-12-22T02:21:01;1.50;;;0.00;;
84264;SDS011;74412;45.626;5.108;2023-12-22T02:23:30;0.00;;;0.00;;
84264;SDS011;74412;45.626;5.108;2023-12-22T02:25:57;0.50;;;0.00;;
84264;SDS011;74412;45.626;5.108;2023-12-22T02:28:32;0.00;;;0.00;;
84264;SDS011;74412;45.626;5.108;2023-12-22T02:31:04;0.00;;;0.00;;
84264;SDS011;74412;45.626;5.108;2023-12-22T02:33:44;0.50;;;0.00;;
84264;SDS011;74412;45.626;5.108;2023-12-22T02:36:13;1.00;;;0.00;;
84264;SDS011;74412;45.626;5.108;2023-12-22T02:38:44;0.00;;;0.00;;
84264;SDS011;74412;45.626;5.108;2023-12-22T02:41:12;0.00;;;0.00;;
84264;SDS011;74412;45.626;5.108;2023-12-22T02:43:40;0.00;;;0.00;;
84264;SDS011;74412;45.626;5.108;2023-12-22T02:46:12;0.00;;;0.00;;
84264;SDS011;74412;45.626;5.108;2023-12-22T02:48:39;0.00;;;0.00;;
84264;SDS011;74412;45.626;5.108;2023-12-22T02:51:06;1.00;;;1.00;;
84264;SDS011;74412;45.626;5.108;2023-12-22T02:53:33;0.00;;;0.00;;
84264;SDS011;74412;45.626;5.108;2023-12-22T02:56:01;0.00;;;0.00;;
84264;SDS011;74412;45.626;5.108;2023-12-22T02:58:27;0.00;;;0.00;;
84264;SDS011;74412;45.626;5.108;2023-12-22T03:00:54;0.00;;;0.00;;
84264;SDS011;74412;45.626;5.108;2023-12-22T03:03:21;0.00;;;0.00;;
84264;SDS011;74412;45.626;5.108;2023-12-22T03:05:47;0.00;;;0.00;;
84264;SDS011;74412;45.626;5.108;2023-12-22T03:08:14;0.25;;;0.25;;
84264;SDS011;74412;45.626;5.108;2023-12-22T03:10:40;0.00;;;0.00;;
84264;SDS011;74412;45.626;5.108;2023-12-22T03:13:08;1.00;;;0.00;;
84264;SDS011;74412;45.626;5.108;2023-12-22T03:15:35;0.00;;;0.00;;
84264;SDS011;74412;45.626;5.108;2023-12-22T03:18:02;0.25;;;0.00;;
84264;SDS011;74412;45.626;5.108;2023-12-22T03:20:28;0.00;;;0.00;;
84264;SDS011;74412;45.626;5.108;2023-12-22T03:22:55;1.00;;;1.00;;
84264;SDS011;74412;45.626;5.108;2023-12-22T03:25:22;1.00;;;0.00;;
84264;SDS011;74412;45.626;5.108;2023-12-22T03:27:49;0.00;;;0.00;;
84264;SDS011;74412;45.626;5.108;2023-12-22T03:30:18;1.00;;;0.00;;
84264;SDS011;74412;45.626;5.108;2023-12-22T03:32:44;0.50;;;0.25;;
84264;SDS011;74412;45.626;5.108;2023-12-22T03:35:11;1.25;;;0.00;;
84264;SDS011;74412;45.626;5.108;2023-12-22T03:37:37;0.25;;;0.00;;
84264;SDS011;74412;45.626;5.108;2023-12-22T03:40:04;0.50;;;0.00;;
84264;SDS011;74412;45.626;5.108;2023-12-22T03:42:32;0.00;;;0.00;;
84264;SDS011;74412;45.626;5.108;2023-12-22T03:44:59;1.25;;;0.00;;
84264;SDS011;74412;45.626;5.108;2023-12-22T03:47:26;0.00;;;0.00;;
84264;SDS011;74412;45.626;5.108;2023-12-22T03:49:53;0.00;;;0.00;;
84264;SDS011;74412;45.626;5.108;2023-12-22T03:52:20;0.00;;;0.00;;
84264;SDS011;74412;45.626;5.108;2023-12-22T03:54:46;0.00;;;0.00;;
84264;SDS011;74412;45.626;5.108;2023-12-22T03:57:13;0.00;;;0.00;;
84264;SDS011;74412;45.626;5.108;2023-12-22T03:59:41;0.00;;;0.00;;
84264;SDS011;74412;45.626;5.108;2023-12-22T04:02:08;0.50;;;0.00;;
84264;SDS011;74412;45.626;5.108;2023-12-22T04:04:38;0.00;;;0.00;;
84264;SDS011;74412;45.626;5.108;2023-12-22T04:07:05;0.00;;;0.00;;
84264;SDS011;74412;45.626;5.108;2023-12-22T04:09:31;0.00;;;0.00;;
84264;SDS011;74412;45.626;5.108;2023-12-22T04:11:58;0.00;;;0.00;;
84264;SDS011;74412;45.626;5.108;2023-12-22T04:14:25;0.00;;;0.00;;
84264;SDS011;74412;45.626;5.108;2023-12-22T04:16:52;0.00;;;0.00;;
84264;SDS011;74412;45.626;5.108;2023-12-22T04:19:19;0.00;;;0.00;;
84264;SDS011;74412;45.626;5.108;2023-12-22T04:21:46;0.00;;;0.00;;
84264;SDS011;74412;45.626;5.108;2023-12-22T04:24:13;0.00;;;0.00;;
84264;SDS011;74412;45.626;5.108;2023-12-22T04:26:40;0.00;;;0.00;;
84264;SDS011;74412;45.626;5.108;2023-12-22T04:29:06;0.50;;;0.50;;
84264;SDS011;74412;45.626;5.108;2023-12-22T04:31:33;0.00;;;0.00;;
84264;SDS011;74412;45.626;5.108;2023-12-22T04:33:59;0.00;;;0.00;;
84264;SDS011;74412;45.626;5.108;2023-12-22T04:36:26;0.00;;;0.00;;
84264;SDS011;74412;45.626;5.108;2023-12-22T04:38:54;0.50;;;0.00;;
84264;SDS011;74412;45.626;5.108;2023-12-22T04:41:21;1.00;;;0.00;;
84264;SDS011;74412;45.626;5.108;2023-12-22T04:43:47;0.00;;;0.00;;
84264;SDS011;74412;45.626;5.108;2023-12-22T04:46:14;0.50;;;0.50;;
84264;SDS011;74412;45.626;5.108;2023-12-22T04:48:41;1.00;;;1.00;;
84264;SDS011;74412;45.626;5.108;2023-12-22T04:51:07;0.25;;;0.00;;
84264;SDS011;74412;45.626;5.108;2023-12-22T04:53:34;1.50;;;0.00;;
84264;SDS011;74412;45.626;5.108;2023-12-22T04:56:02;0.00;;;0.00;;
84264;SDS011;74412;45.626;5.108;2023-12-22T04:58:29;0.00;;;0.00;;
84264;SDS011;74412;45.626;5.108;2023-12-22T05:00:55;1.50;;;0.50;;
84264;SDS011;74412;45.626;5.108;2023-12-22T05:03:22;0.00;;;0.00;;
84264;SDS011;74412;45.626;5.108;2023-12-22T05:05:51;0.00;;;0.00;;
84264;SDS011;74412;45.626;5.108;2023-12-22T05:08:18;0.00;;;0.00;;
84264;SDS011;74412;45.626;5.108;2023-12-22T05:10:44;1.25;;;1.00;;
84264;SDS011;74412;45.626;5.108;2023-12-22T05:13:12;0.25;;;0.00;;
84264;SDS011;74412;45.626;5.108;2023-12-22T05:15:39;0.75;;;0.00;;
84264;SDS011;74412;45.626;5.108;2023-12-22T05:18:06;3.25;;;1.00;;
84264;SDS011;74412;45.626;5.108;2023-12-22T05:20:32;2.00;;;0.50;;
84264;SDS011;74412;45.626;5.108;2023-12-22T05:22:59;1.00;;;1.00;;
84264;SDS011;74412;45.626;5.108;2023-12-22T05:25:26;1.00;;;1.00;;
84264;SDS011;74412;45.626;5.108;2023-12-22T05:27:54;3.00;;;1.00;;
84264;SDS011;74412;45.626;5.108;2023-12-22T05:30:22;1.00;;;1.00;;
84264;SDS011;74412;45.626;5.108;2023-12-22T05:32:48;1.00;;;1.00;;
84264;SDS011;74412;45.626;5.108;2023-12-22T05:35:15;0.25;;;0.25;;
84264;SDS011;74412;45.626;5.108;2023-12-22T05:37:42;0.00;;;0.00;;
84264;SDS011;74412;45.626;5.108;2023-12-22T05:40:09;1.00;;;0.25;;
84264;SDS011;74412;45.626;5.108;2023-12-22T05:42:36;0.00;;;0.00;;
84264;SDS011;74412;45.626;5.108;2023-12-22T05:45:03;0.50;;;0.50;;
84264;SDS011;74412;45.626;5.108;2023-12-22T05:47:33;0.25;;;0.25;;
84264;SDS011;74412;45.626;5.108;2023-12-22T05:49:59;1.25;;;0.50;;
84264;SDS011;74412;45.626;5.108;2023-12-22T05:52:26;0.25;;;0.00;;
84264;SDS011;74412;45.626;5.108;2023-12-22T05:54:52;2.00;;;2.00;;
84264;SDS011;74412;45.626;5.108;2023-12-22T05:57:19;4.00;;;1.00;;
84264;SDS011;74412;45.626;5.108;2023-12-22T05:59:46;1.75;;;1.00;;
84264;SDS011;74412;45.626;5.108;2023-12-22T06:02:12;1.00;;;1.00;;
84264;SDS011;74412;45.626;5.108;2023-12-22T06:04:41;3.50;;;1.00;;
84264;SDS011;74412;45.626;5.108;2023-12-22T06:07:08;2.25;;;2.25;;
84264;SDS011;74412;45.626;5.108;2023-12-22T06:09:36;2.00;;;1.50;;
84264;SDS011;74412;45.626;5.108;2023-12-22T06:12:02;1.00;;;1.00;;
84264;SDS011;74412;45.626;5.108;2023-12-22T06:14:30;1.00;;;1.00;;
84264;SDS011;74412;45.626;5.108;2023-12-22T06:16:57;0.25;;;0.25;;
84264;SDS011;74412;45.626;5.108;2023-12-22T06:19:24;1.00;;;1.00;;
84264;SDS011;74412;45.626;5.108;2023-12-22T06:21:55;2.00;;;0.00;;
84264;SDS011;74412;45.626;5.108;2023-12-22T06:24:22;0.00;;;0.00;;
84264;SDS011;74412;45.626;5.108;2023-12-22T06:26:48;0.75;;;0.75;;
84264;SDS011;74412;45.626;5.108;2023-12-22T06:29:15;3.00;;;1.00;;
84264;SDS011;74412;45.626;5.108;2023-12-22T06:31:42;4.75;;;1.00;;
84264;SDS011;74412;45.626;5.108;2023-12-22T06:34:08;3.75;;;1.00;;
84264;SDS011;74412;45.626;5.108;2023-12-22T06:36:35;1.00;;;1.00;;
84264;SDS011;74412;45.626;5.108;2023-12-22T06:39:03;1.00;;;1.00;;
84264;SDS011;74412;45.626;5.108;2023-12-22T06:41:30;1.25;;;0.25;;
84264;SDS011;74412;45.626;5.108;2023-12-22T06:43:57;1.75;;;0.00;;
84264;SDS011;74412;45.626;5.108;2023-12-22T06:46:25;5.00;;;0.00;;
84264;SDS011;74412;45.626;5.108;2023-12-22T06:48:52;1.25;;;0.25;;
84264;SDS011;74412;45.626;5.108;2023-12-22T06:51:20;0.00;;;0.00;;
84264;SDS011;74412;45.626;5.108;2023-12-22T06:53:48;1.00;;;1.00;;
84264;SDS011;74412;45.626;5.108;2023-12-22T06:56:18;0.00;;;0.00;;
84264;SDS011;74412;45.626;5.108;2023-12-22T06:58:46;1.00;;;1.00;;
84264;SDS011;74412;45.626;5.108;2023-12-22T07:01:17;2.00;;;1.75;;
84264;SDS011;74412;45.626;5.108;2023-12-22T07:03:45;1.00;;;1.00;;
84264;SDS011;74412;45.626;5.108;2023-12-22T07:06:13;5.00;;;2.00;;
84264;SDS011;74412;45.626;5.108;2023-12-22T07:08:39;6.50;;;5.25;;
84264;SDS011;74412;45.626;5.108;2023-12-22T07:11:06;5.25;;;2.50;;
84264;SDS011;74412;45.626;5.108;2023-12-22T07:13:34;2.00;;;2.00;;
84264;SDS011;74412;45.626;5.108;2023-12-22T07:16:01;3.00;;;1.00;;
84264;SDS011;74412;45.626;5.108;2023-12-22T07:18:28;2.00;;;2.00;;
84264;SDS011;74412;45.626;5.108;2023-12-22T07:20:55;3.00;;;2.00;;
84264;SDS011;74412;45.626;5.108;2023-12-22T07:23:22;1.75;;;1.75;;
84264;SDS011;74412;45.626;5.108;2023-12-22T07:25:48;3.00;;;0.25;;
84264;SDS011;74412;45.626;5.108;2023-12-22T07:28:15;1.00;;;1.00;;
84264;SDS011;74412;45.626;5.108;2023-12-22T07:30:43;1.00;;;1.00;;
84264;SDS011;74412;45.626;5.108;2023-12-22T07:33:10;0.00;;;0.00;;
84264;SDS011;74412;45.626;5.108;2023-12-22T07:35:36;0.00;;;0.00;;
84264;SDS011;74412;45.626;5.108;2023-12-22T07:38:03;1.25;;;1.00;;
84264;SDS011;74412;45.626;5.108;2023-12-22T07:40:30;0.00;;;0.00;;
84264;SDS011;74412;45.626;5.108;2023-12-22T07:42:56;2.00;;;1.25;;
84264;SDS011;74412;45.626;5.108;2023-12-22T07:45:23;1.00;;;1.00;;
84264;SDS011;74412;45.626;5.108;2023-12-22T07:47:51;0.50;;;0.50;;
84264;SDS011;74412;45.626;5.108;2023-12-22T07:50:18;1.00;;;1.00;;
84264;SDS011;74412;45.626;5.108;2023-12-22T07:52:46;0.00;;;0.00;;
84264;SDS011;74412;45.626;5.108;2023-12-22T07:55:13;1.00;;;1.00;;
84264;SDS011;74412;45.626;5.108;2023-12-22T07:57:39;0.75;;;0.75;;
84264;SDS011;74412;45.626;5.108;2023-12-22T08:00:07;1.00;;;1.00;;
84264;SDS011;74412;45.626;5.108;2023-12-22T08:02:36;1.00;;;1.00;;
84264;SDS011;74412;45.626;5.108;2023-12-22T08:05:04;1.75;;;1.00;;
84264;SDS011;74412;45.626;5.108;2023-12-22T08:07:31;1.00;;;1.00;;
84264;SDS011;74412;45.626;5.108;2023-12-22T08:09:58;4.25;;;1.00;;
84264;SDS011;74412;45.626;5.108;2023-12-22T08:12:25;2.00;;;2.00;;
84264;SDS011;74412;45.626;5.108;2023-12-22T08:14:53;3.00;;;1.00;;
84264;SDS011;74412;45.626;5.108;2023-12-22T08:17:20;3.00;;;2.00;;
84264;SDS011;74412;45.626;5.108;2023-12-22T08:19:46;2.00;;;2.00;;
84264;SDS011;74412;45.626;5.108;2023-12-22T08:22:14;2.00;;;2.00;;
84264;SDS011;74412;45.626;5.108;2023-12-22T08:24:41;1.75;;;1.50;;
84264;SDS011;74412;45.626;5.108;2023-12-22T08:27:08;2.50;;;2.00;;
84264;SDS011;74412;45.626;5.108;2023-12-22T08:29:35;4.00;;;2.00;;
84264;SDS011;74412;45.626;5.108;2023-12-22T08:32:02;5.75;;;4.25;;
84264;SDS011;74412;45.626;5.108;2023-12-22T08:34:29;3.00;;;3.00;;
84264;SDS011;74412;45.626;5.108;2023-12-22T08:36:56;4.00;;;4.00;;
84264;SDS011;74412;45.626;5.108;2023-12-22T08:39:24;4.00;;;2.00;;
84264;SDS011;74412;45.626;5.108;2023-12-22T08:41:51;5.00;;;3.75;;
84264;SDS011;74412;45.626;5.108;2023-12-22T08:44:18;3.00;;;1.75;;
84264;SDS011;74412;45.626;5.108;2023-12-22T08:46:45;5.50;;;3.75;;
84264;SDS011;74412;45.626;5.108;2023-12-22T08:49:12;14.75;;;14.75;;
84264;SDS011;74412;45.626;5.108;2023-12-22T08:51:39;10.25;;;9.25;;
84264;SDS011;74412;45.626;5.108;2023-12-22T08:54:06;20.50;;;19.25;;
84264;SDS011;74412;45.626;5.108;2023-12-22T08:56:36;32.00;;;30.50;;
84264;SDS011;74412;45.626;5.108;2023-12-22T08:59:03;14.75;;;14.75;;
84264;SDS011;74412;45.626;5.108;2023-12-22T09:01:30;18.50;;;18.00;;
84264;SDS011;74412;45.626;5.108;2023-12-22T09:03:57;15.25;;;14.25;;
84264;SDS011;74412;45.626;5.108;2023-12-22T09:06:26;10.25;;;8.00;;
84264;SDS011;74412;45.626;5.108;2023-12-22T09:09:04;3.00;;;3.00;;
84264;SDS011;74412;45.626;5.108;2023-12-22T09:11:36;3.00;;;3.00;;
84264;SDS011;74412;45.626;5.108;2023-12-22T09:14:04;3.00;;;3.00;;
84264;SDS011;74412;45.626;5.108;2023-12-22T09:16:31;4.00;;;3.00;;
84264;SDS011;74412;45.626;5.108;2023-12-22T09:18:58;3.00;;;3.00;;
84264;SDS011;74412;45.626;5.108;2023-12-22T09:21:25;3.00;;;2.00;;
84264;SDS011;74412;45.626;5.108;2023-12-22T09:23:52;3.50;;;3.50;;
84264;SDS011;74412;45.626;5.108;2023-12-22T09:26:19;5.00;;;3.00;;
84264;SDS011;74412;45.626;5.108;2023-12-22T09:28:50;5.25;;;4.25;;
84264;SDS011;74412;45.626;5.108;2023-12-22T09:31:17;2.00;;;2.00;;
84264;SDS011;74412;45.626;5.108;2023-12-22T09:33:43;2.75;;;2.75;;
84264;SDS011;74412;45.626;5.108;2023-12-22T09:36:10;2.00;;;2.00;;
84264;SDS011;74412;45.626;5.108;2023-12-22T09:38:41;2.00;;;1.75;;
84264;SDS011;74412;45.626;5.108;2023-12-22T09:41:09;3.00;;;2.00;;
84264;SDS011;74412;45.626;5.108;2023-12-22T09:43:36;1.75;;;1.00;;
84264;SDS011;74412;45.626;5.108;2023-12-22T09:46:06;3.00;;;2.00;;
84264;SDS011;74412;45.626;5.108;2023-12-22T09:48:35;4.00;;;3.25;;
84264;SDS011;74412;45.626;5.108;2023-12-22T09:51:05;3.00;;;3.00;;
84264;SDS011;74412;45.626;5.108;2023-12-22T09:53:33;2.50;;;2.00;;
84264;SDS011;74412;45.626;5.108;2023-12-22T09:56:03;3.75;;;2.50;;
84264;SDS011;74412;45.626;5.108;2023-12-22T09:58:30;2.00;;;2.00;;
84264;SDS011;74412;45.626;5.108;2023-12-22T10:01:00;3.00;;;3.00;;
84264;SDS011;74412;45.626;5.108;2023-12-22T10:03:31;2.00;;;2.00;;
84264;SDS011;74412;45.626;5.108;2023-12-22T10:05:59;3.50;;;3.00;;
84264;SDS011;74412;45.626;5.108;2023-12-22T10:08:26;2.25;;;2.00;;
84264;SDS011;74412;45.626;5.108;2023-12-22T10:10:54;4.75;;;2.00;;
84264;SDS011;74412;45.626;5.108;2023-12-22T10:13:22;1.75;;;1.75;;
84264;SDS011;74412;45.626;5.108;2023-12-22T10:15:49;3.75;;;3.75;;
84264;SDS011;74412;45.626;5.108;2023-12-22T10:18:16;3.50;;;2.25;;
84264;SDS011;74412;45.626;5.108;2023-12-22T10:20:45;5.25;;;3.00;;
84264;SDS011;74412;45.626;5.108;2023-12-22T10:23:13;2.00;;;2.00;;
84264;SDS011;74412;45.626;5.108;2023-12-22T10:25:40;2.25;;;2.25;;
84264;SDS011;74412;45.626;5.108;2023-12-22T10:28:09;3.00;;;3.00;;
84264;SDS011;74412;45.626;5.108;2023-12-22T10:30:38;4.00;;;4.00;;
84264;SDS011;74412;45.626;5.108;2023-12-22T10:33:06;4.50;;;4.50;;
84264;SDS011;74412;45.626;5.108;2023-12-22T10:35:33;7.25;;;3.75;;
84264;SDS011;74412;45.626;5.108;2023-12-22T10:38:01;4.75;;;3.00;;
84264;SDS011;74412;45.626;5.108;2023-12-22T10:40:30;2.00;;;2.00;;
84264;SDS011;74412;45.626;5.108;2023-12-22T10:42:56;3.00;;;1.50;;
84264;SDS011;74412;45.626;5.108;2023-12-22T10:45:28;3.50;;;2.00;;
84264;SDS011;74412;45.626;5.108;2023-12-22T10:47:56;1.00;;;1.00;;
84264;SDS011;74412;45.626;5.108;2023-12-22T10:50:24;2.00;;;1.00;;
84264;SDS011;74412;45.626;5.108;2023-12-22T10:52:51;1.00;;;1.00;;
84264;SDS011;74412;45.626;5.108;2023-12-22T10:55:21;3.25;;;3.25;;
84264;SDS011;74412;45.626;5.108;2023-12-22T10:57:48;2.00;;;2.00;;
84264;SDS011;74412;45.626;5.108;2023-12-22T11:00:15;2.00;;;1.00;;
84264;SDS011;74412;45.626;5.108;2023-12-22T11:02:42;2.00;;;0.00;;
84264;SDS011;74412;45.626;5.108;2023-12-22T11:05:13;1.00;;;1.00;;
84264;SDS011;74412;45.626;5.108;2023-12-22T11:07:42;0.00;;;0.00;;
84264;SDS011;74412;45.626;5.108;2023-12-22T11:10:16;1.50;;;1.00;;
84264;SDS011;74412;45.626;5.108;2023-12-22T11:12:46;1.00;;;1.00;;
84264;SDS011;74412;45.626;5.108;2023-12-22T11:15:14;1.00;;;1.00;;
84264;SDS011;74412;45.626;5.108;2023-12-22T11:17:42;5.00;;;2.00;;
84264;SDS011;74412;45.626;5.108;2023-12-22T11:20:11;2.75;;;2.00;;
84264;SDS011;74412;45.626;5.108;2023-12-22T11:22:39;3.00;;;3.00;;
84264;SDS011;74412;45.626;5.108;2023-12-22T11:25:08;2.75;;;2.00;;
84264;SDS011;74412;45.626;5.108;2023-12-22T11:27:36;1.00;;;1.00;;
84264;SDS011;74412;45.626;5.108;2023-12-22T11:30:04;1.50;;;1.50;;
84264;SDS011;74412;45.626;5.108;2023-12-22T11:32:33;2.00;;;1.00;;
84264;SDS011;74412;45.626;5.108;2023-12-22T11:35:00;2.00;;;2.00;;
84264;SDS011;74412;45.626;5.108;2023-12-22T11:37:28;1.50;;;1.00;;
84264;SDS011;74412;45.626;5.108;2023-12-22T11:40:00;2.50;;;1.50;;
84264;SDS011;74412;45.626;5.108;2023-12-22T11:42:28;1.00;;;1.00;;
84264;SDS011;74412;45.626;5.108;2023-12-22T11:44:59;2.00;;;2.00;;
84264;SDS011;74412;45.626;5.108;2023-12-22T11:47:26;1.50;;;1.50;;
84264;SDS011;74412;45.626;5.108;2023-12-22T11:49:54;3.50;;;1.75;;
84264;SDS011;74412;45.626;5.108;2023-12-22T11:52:25;0.00;;;0.00;;
84264;SDS011;74412;45.626;5.108;2023-12-22T11:54:53;2.00;;;2.00;;
84264;SDS011;74412;45.626;5.108;2023-12-22T11:57:30;4.25;;;4.00;;
84264;SDS011;74412;45.626;5.108;2023-12-22T11:59:57;1.50;;;1.00;;
84264;SDS011;74412;45.626;5.108;2023-12-22T12:02:29;3.25;;;3.25;;
84264;SDS011;74412;45.626;5.108;2023-12-22T12:04:57;2.25;;;2.00;;
84264;SDS011;74412;45.626;5.108;2023-12-22T12:07:41;2.00;;;1.00;;
84264;SDS011;74412;45.626;5.108;2023-12-22T12:10:10;1.00;;;1.00;;
84264;SDS011;74412;45.626;5.108;2023-12-22T12:12:39;1.00;;;1.00;;
84264;SDS011;74412;45.626;5.108;2023-12-22T12:15:08;2.75;;;1.75;;
84264;SDS011;74412;45.626;5.108;2023-12-22T12:17:43;1.00;;;1.00;;
84264;SDS011;74412;45.626;5.108;2023-12-22T12:20:10;0.50;;;0.50;;
84264;SDS011;74412;45.626;5.108;2023-12-22T12:22:38;8.25;;;8.25;;
84264;SDS011;74412;45.626;5.108;2023-12-22T12:25:08;5.25;;;5.25;;
84264;SDS011;74412;45.626;5.108;2023-12-22T12:27:36;9.25;;;8.00;;
84264;SDS011;74412;45.626;5.108;2023-12-22T12:30:12;5.50;;;5.00;;
84264;SDS011;74412;45.626;5.108;2023-12-22T12:32:43;9.50;;;9.50;;
84264;SDS011;74412;45.626;5.108;2023-12-22T12:35:11;2.00;;;2.00;;
84264;SDS011;74412;45.626;5.108;2023-12-22T12:37:38;8.25;;;8.25;;
84264;SDS011;74412;45.626;5.108;2023-12-22T12:40:06;7.50;;;7.50;;
84264;SDS011;74412;45.626;5.108;2023-12-22T12:42:37;0.00;;;0.00;;
84264;SDS011;74412;45.626;5.108;2023-12-22T12:45:04;3.75;;;3.75;;
84264;SDS011;74412;45.626;5.108;2023-12-22T12:47:33;0.50;;;0.00;;
84264;SDS011;74412;45.626;5.108;2023-12-22T12:50:00;0.00;;;0.00;;
84264;SDS011;74412;45.626;5.108;2023-12-22T12:52:28;0.00;;;0.00;;
84264;SDS011;74412;45.626;5.108;2023-12-22T12:54:54;0.00;;;0.00;;
84264;SDS011;74412;45.626;5.108;2023-12-22T12:57:23;0.00;;;0.00;;
84264;SDS011;74412;45.626;5.108;2023-12-22T12:59:50;0.75;;;0.75;;
84264;SDS011;74412;45.626;5.108;2023-12-22T13:02:17;0.00;;;0.00;;
84264;SDS011;74412;45.626;5.108;2023-12-22T13:04:47;0.00;;;0.00;;
84264;SDS011;74412;45.626;5.108;2023-12-22T13:07:13;1.75;;;0.00;;
84264;SDS011;74412;45.626;5.108;2023-12-22T13:09:40;0.00;;;0.00;;
84264;SDS011;74412;45.626;5.108;2023-12-22T13:12:08;0.00;;;0.00;;
84264;SDS011;74412;45.626;5.108;2023-12-22T13:14:35;0.00;;;0.00;;
84264;SDS011;74412;45.626;5.108;2023-12-22T13:17:02;0.00;;;0.00;;
84264;SDS011;74412;45.626;5.108;2023-12-22T13:19:29;1.00;;;0.00;;
84264;SDS011;74412;45.626;5.108;2023-12-22T13:21:58;0.00;;;0.00;;
84264;SDS011;74412;45.626;5.108;2023-12-22T13:24:25;0.00;;;0.00;;
84264;SDS011;74412;45.626;5.108;2023-12-22T13:26:59;0.00;;;0.00;;
84264;SDS011;74412;45.626;5.108;2023-12-22T13:29:27;1.00;;;0.00;;
84264;SDS011;74412;45.626;5.108;2023-12-22T13:31:54;0.00;;;0.00;;
84264;SDS011;74412;45.626;5.108;2023-12-22T13:34:22;0.00;;;0.00;;
84264;SDS011;74412;45.626;5.108;2023-12-22T13:36:49;0.00;;;0.00;;
84264;SDS011;74412;45.626;5.108;2023-12-22T13:39:18;0.75;;;0.00;;
84264;SDS011;74412;45.626;5.108;2023-12-22T13:41:44;0.75;;;0.00;;
84264;SDS011;74412;45.626;5.108;2023-12-22T13:44:11;0.00;;;0.00;;
84264;SDS011;74412;45.626;5.108;2023-12-22T13:46:39;0.50;;;0.00;;
84264;SDS011;74412;45.626;5.108;2023-12-22T13:49:07;0.00;;;0.00;;
84264;SDS011;74412;45.626;5.108;2023-12-22T13:51:38;0.00;;;0.00;;
84264;SDS011;74412;45.626;5.108;2023-12-22T13:54:06;0.00;;;0.00;;
84264;SDS011;74412;45.626;5.108;2023-12-22T13:56:34;0.00;;;0.00;;
84264;SDS011;74412;45.626;5.108;2023-12-22T13:59:06;0.25;;;0.00;;
84264;SDS011;74412;45.626;5.108;2023-12-22T14:01:33;0.25;;;0.00;;
84264;SDS011;74412;45.626;5.108;2023-12-22T14:04:01;0.00;;;0.00;;
84264;SDS011;74412;45.626;5.108;2023-12-22T14:06:28;2.00;;;1.00;;
84264;SDS011;74412;45.626;5.108;2023-12-22T14:08:55;0.00;;;0.00;;
84264;SDS011;74412;45.626;5.108;2023-12-22T14:11:22;0.75;;;0.75;;
84264;SDS011;74412;45.626;5.108;2023-12-22T14:13:50;0.75;;;0.50;;
84264;SDS011;74412;45.626;5.108;2023-12-22T14:16:17;0.75;;;0.50;;
84264;SDS011;74412;45.626;5.108;2023-12-22T14:18:43;0.50;;;0.50;;
84264;SDS011;74412;45.626;5.108;2023-12-22T14:21:11;0.00;;;0.00;;
84264;SDS011;74412;45.626;5.108;2023-12-22T14:23:37;2.00;;;0.00;;
84264;SDS011;74412;45.626;5.108;2023-12-22T14:26:04;0.00;;;0.00;;
84264;SDS011;74412;45.626;5.108;2023-12-22T14:28:31;1.00;;;1.00;;
84264;SDS011;74412;45.626;5.108;2023-12-22T14:30:59;0.50;;;0.50;;
84264;SDS011;74412;45.626;5.108;2023-12-22T14:33:26;0.25;;;0.25;;
84264;SDS011;74412;45.626;5.108;2023-12-22T14:35:52;1.00;;;1.00;;
84264;SDS011;74412;45.626;5.108;2023-12-22T14:38:19;1.00;;;1.00;;
84264;SDS011;74412;45.626;5.108;2023-12-22T14:40:46;0.25;;;0.25;;
84264;SDS011;74412;45.626;5.108;2023-12-22T14:43:13;1.00;;;1.00;;
84264;SDS011;74412;45.626;5.108;2023-12-22T14:45:39;1.00;;;1.00;;
84264;SDS011;74412;45.626;5.108;2023-12-22T14:48:07;1.00;;;1.00;;
84264;SDS011;74412;45.626;5.108;2023-12-22T14:50:34;1.00;;;1.00;;